Wetterdaten: Woche 27.04.09 - 03.05.09 (KW18)
Datum Zeit Temp. A. Feuchte A. Luftdruck Regen Wind Richtung Taupunkt Windchill Windben
27.04.2009 00:00 13,0 C 53 % 1015,0 hPa 0,0 l/m 1,3 km/h O 3,6 C 13,0 C 7,2 km/h
27.04.2009 01:00 12,9 C 52 % 1014,3 hPa 0,0 l/m 1,9 km/h O-NO 3,1 C 12,9 C 10,5 km/h
27.04.2009 02:00 12,3 C 53 % 1013,8 hPa 0,0 l/m 1,0 km/h S 3,0 C 12,3 C 6,8 km/h
27.04.2009 03:00 12,3 C 53 % 1012,8 hPa 0,0 l/m 1,9 km/h O 3,0 C 12,3 C 13,7 km/h
27.04.2009 04:00 11,7 C 54 % 1011,8 hPa 0,0 l/m 3,6 km/h SO 2,7 C 11,7 C 18,9 km/h
27.04.2009 05:00 11,3 C 55 % 1011,7 hPa 0,0 l/m 4,6 km/h SO 2,6 C 11,3 C 22,5 km/h
27.04.2009 06:00 11,0 C 58 % 1012,3 hPa 0,0 l/m 1,0 km/h O-SO 3,1 C 11,0 C 8,4 km/h
27.04.2009 07:00 11,4 C 60 % 1012,2 hPa 0,0 l/m 1,7 km/h O-SO 3,8 C 11,4 C 9,3 km/h
27.04.2009 08:00 12,5 C 60 % 1012,5 hPa 0,0 l/m 2,7 km/h O-NO 4,9 C 12,5 C 12,5 km/h
27.04.2009 09:00 13,8 C 58 % 1012,3 hPa 0,0 l/m 2,8 km/h S-SO 5,8 C 13,8 C 14,1 km/h
27.04.2009 10:00 15,4 C 57 % 1011,9 hPa 0,0 l/m 3,5 km/h O-SO 7,0 C 15,4 C 11,7 km/h
27.04.2009 11:00 16,1 C 56 % 1011,8 hPa 0,0 l/m 4,3 km/h O-NO 7,3 C 16,1 C 15,3 km/h
27.04.2009 12:00 17,6 C 54 % 1011,5 hPa 0,0 l/m 4,7 km/h SO 8,2 C 17,6 C 16,1 km/h
27.04.2009 13:00 18,8 C 53 % 1011,0 hPa 0,0 l/m 5,1 km/h O-NO 9,0 C 18,8 C 16,9 km/h
27.04.2009 14:00 20,0 C 50 % 1010,7 hPa 0,0 l/m 4,6 km/h O-NO 9,3 C 20,0 C 17,3 km/h
27.04.2009 15:00 20,1 C 50 % 1010,4 hPa 0,0 l/m 5,1 km/h O-NO 9,2 C 20,1 C 16,5 km/h
27.04.2009 16:00 20,4 C 47 % 1010,2 hPa 0,0 l/m 4,4 km/h N-NO 8,8 C 20,4 C 13,7 km/h
27.04.2009 17:00 19,9 C 45 % 1009,8 hPa 0,0 l/m 4,0 km/h O-NO 7,7 C 19,9 C 12,5 km/h
27.04.2009 18:00 19,3 C 43 % 1009,5 hPa 0,0 l/m 3,1 km/h SO 6,4 C 19,3 C 14,9 km/h
27.04.2009 19:00 18,4 C 46 % 1009,5 hPa 0,0 l/m 2,0 km/h W-NW 6,7 C 18,4 C 10,9 km/h
27.04.2009 20:00 17,2 C 50 % 1009,6 hPa 0,0 l/m 1,2 km/h S-SO 6,7 C 17,2 C 7,2 km/h
27.04.2009 21:00 15,3 C 58 % 1009,6 hPa 0,0 l/m 0,1 km/h N 7,1 C 15,3 C 1,6 km/h
27.04.2009 22:00 12,8 C 68 % 1009,5 hPa 0,0 l/m 0,0 km/h N 7,1 C 12,8 C 0,4 km/h
27.04.2009 23:00 12,6 C 68 % 1009,2 hPa 0,0 l/m 0,4 km/h S 6,7 C 12,6 C 4,0 km/h
28.04.2009 00:00 14,3 C 51 % 1009,0 hPa 0,0 l/m 1,0 km/h S 4,3 C 14,3 C 6,4 km/h
28.04.2009 01:00 14,2 C 52 % 1008,6 hPa 0,0 l/m 0,3 km/h N 4,5 C 14,2 C 3,6 km/h
28.04.2009 02:00 14,2 C 53 % 1008,1 hPa 0,0 l/m 1,1 km/h O 4,8 C 14,2 C 4,8 km/h
28.04.2009 03:00 13,7 C 53 % 1007,7 hPa 0,0 l/m 1,0 km/h O 4,1 C 13,7 C 4,4 km/h
28.04.2009 04:00 12,1 C 55 % 1007,5 hPa 0,0 l/m 0,6 km/h O 3,3 C 12,1 C 4,4 km/h
28.04.2009 05:00 10,6 C 58 % 1007,7 hPa 0,0 l/m 1,4 km/h O-SO 2,6 C 10,6 C 4,4 km/h
28.04.2009 06:00 10,3 C 59 % 1008,0 hPa 0,0 l/m 0,4 km/h O 2,7 C 10,3 C 2,8 km/h
28.04.2009 07:00 11,3 C 58 % 1008,1 hPa 0,0 l/m 1,5 km/h O 3,3 C 11,3 C 5,2 km/h
28.04.2009 08:00 12,8 C 56 % 1008,2 hPa 0,0 l/m 1,9 km/h O 4,1 C 12,8 C 8,4 km/h
28.04.2009 09:00 14,0 C 55 % 1007,9 hPa 0,0 l/m 2,4 km/h O-NO 5,1 C 14,0 C 10,1 km/h
28.04.2009 10:00 15,0 C 53 % 1008,0 hPa 0,0 l/m 3,9 km/h O 5,5 C 15,0 C 13,3 km/h
28.04.2009 11:00 16,6 C 52 % 1007,7 hPa 0,0 l/m 4,0 km/h SO 6,6 C 16,6 C 12,1 km/h
28.04.2009 12:00 17,9 C 50 % 1007,2 hPa 0,0 l/m 5,4 km/h O 7,3 C 17,9 C 14,9 km/h
28.04.2009 13:00 18,8 C 47 % 1006,7 hPa 0,0 l/m 6,7 km/h O 7,3 C 18,7 C 17,7 km/h
28.04.2009 14:00 19,2 C 47 % 1006,5 hPa 0,0 l/m 5,8 km/h N-NO 7,5 C 19,0 C 17,7 km/h
28.04.2009 15:00 20,2 C 42 % 1006,3 hPa 0,0 l/m 3,7 km/h O-SO 6,9 C 20,2 C 13,7 km/h
28.04.2009 16:00 20,5 C 41 % 1006,0 hPa 0,0 l/m 3,8 km/h SO 6,8 C 20,5 C 17,7 km/h
28.04.2009 17:00 20,3 C 41 % 1005,8 hPa 0,0 l/m 2,3 km/h O 6,5 C 20,3 C 13,3 km/h
28.04.2009 18:00 19,9 C 37 % 1005,6 hPa 0,0 l/m 2,4 km/h O 4,9 C 19,9 C 8,9 km/h
28.04.2009 19:00 19,1 C 42 % 1005,8 hPa 0,0 l/m 1,8 km/h O-NO 5,8 C 19,1 C 8,8 km/h
28.04.2009 20:00 17,5 C 48 % 1006,7 hPa 0,0 l/m 1,5 km/h O-NO 6,2 C 17,5 C 9,6 km/h
28.04.2009 21:00 16,1 C 53 % 1007,6 hPa 0,0 l/m 1,5 km/h S-SO 6,4 C 16,1 C 8,1 km/h
28.04.2009 22:00 14,0 C 67 % 1008,0 hPa 0,0 l/m 0,9 km/h SW 8,0 C 14,0 C 6,0 km/h
28.04.2009 23:00 11,7 C 77 % 1007,8 hPa 0,0 l/m 0,0 km/h N 7,7 C 11,7 C 0,0 km/h
29.04.2009 00:00 11,0 C 75 % 1007,9 hPa 0,0 l/m 0,2 km/h N 6,7 C 11,0 C 2,4 km/h
29.04.2009 01:00 12,0 C 67 % 1007,5 hPa 0,0 l/m 0,2 km/h O 6,1 C 12,0 C 2,8 km/h
29.04.2009 02:00 11,9 C 69 % 1007,2 hPa 0,0 l/m 0,4 km/h N 6,3 C 11,9 C 2,8 km/h
29.04.2009 03:00 12,0 C 72 % 1007,2 hPa 0,0 l/m 0,5 km/h N 7,1 C 12,0 C 6,0 km/h
29.04.2009 04:00 10,9 C 85 % 1007,3 hPa 0,9 l/m 0,1 km/h N 8,5 C 10,9 C 1,6 km/h
29.04.2009 05:00 11,0 C 86 % 1007,2 hPa 0,0 l/m 0,1 km/h N 8,7 C 11,0 C 2,0 km/h
29.04.2009 06:00 11,2 C 85 % 1007,3 hPa 0,0 l/m 0,3 km/h N 8,8 C 11,2 C 3,2 km/h
29.04.2009 07:00 11,4 C 84 % 1007,5 hPa 0,0 l/m 1,3 km/h O 8,8 C 11,4 C 6,0 km/h
29.04.2009 08:00 11,2 C 86 % 1007,9 hPa 0,3 l/m 0,4 km/h S 9,0 C 11,2 C 5,2 km/h
29.04.2009 09:00 12,8 C 81 % 1007,6 hPa 0,3 l/m 1,3 km/h O 9,6 C 12,8 C 9,7 km/h
29.04.2009 10:00 14,3 C 74 % 1007,6 hPa 0,0 l/m 1,3 km/h O 9,7 C 14,3 C 6,8 km/h
29.04.2009 11:00 15,0 C 69 % 1007,6 hPa 0,0 l/m 2,2 km/h O-NO 9,2 C 15,0 C 8,9 km/h
29.04.2009 12:00 16,5 C 64 % 1007,1 hPa 0,0 l/m 1,9 km/h O 9,8 C 16,5 C 9,3 km/h
29.04.2009 13:00 17,8 C 61 % 1006,6 hPa 0,0 l/m 3,4 km/h O-NO 10,3 C 17,8 C 13,7 km/h
29.04.2009 14:00 17,6 C 58 % 1006,8 hPa 0,0 l/m 2,4 km/h O 9,1 C 17,6 C 8,8 km/h
29.04.2009 15:00 17,5 C 59 % 1006,5 hPa 0,0 l/m 3,1 km/h O 9,3 C 17,5 C 11,3 km/h
29.04.2009 16:00 16,0 C 64 % 1006,9 hPa 0,0 l/m 2,8 km/h S 9,3 C 16,0 C 12,8 km/h
29.04.2009 17:00 14,8 C 68 % 1007,2 hPa 0,0 l/m 2,4 km/h S 8,9 C 14,8 C 10,1 km/h
29.04.2009 18:00 13,7 C 75 % 1007,8 hPa 0,0 l/m 2,6 km/h SW 9,2 C 13,7 C 8,4 km/h
29.04.2009 19:00 13,0 C 77 % 1008,5 hPa 0,0 l/m 1,9 km/h SW 9,1 C 13,0 C 8,1 km/h
29.04.2009 20:00 12,4 C 79 % 1009,2 hPa 0,0 l/m 0,6 km/h N 8,8 C 12,4 C 6,1 km/h
29.04.2009 21:00 11,4 C 81 % 1010,0 hPa 0,0 l/m 0,8 km/h SW 8,2 C 11,4 C 5,2 km/h
29.04.2009 22:00 10,2 C 80 % 1010,5 hPa 0,0 l/m 3,1 km/h SW 6,9 C 10,2 C 14,5 km/h
29.04.2009 23:00 9,5 C 76 % 1010,5 hPa 0,0 l/m 3,3 km/h SW 5,5 C 9,5 C 16,1 km/h
30.04.2009 00:00 9,7 C 73 % 1010,8 hPa 0,0 l/m 3,7 km/h SW 5,0 C 9,7 C 16,5 km/h
30.04.2009 01:00 9,9 C 72 % 1011,1 hPa 0,0 l/m 4,0 km/h W-SW 5,2 C 9,9 C 19,7 km/h
30.04.2009 02:00 9,8 C 78 % 1011,6 hPa 0,0 l/m 4,5 km/h SW 6,0 C 9,8 C 16,9 km/h
30.04.2009 03:00 9,4 C 82 % 1011,6 hPa 0,3 l/m 3,1 km/h S-SO 6,5 C 9,4 C 14,1 km/h
30.04.2009 04:00 9,4 C 82 % 1011,5 hPa 0,0 l/m 4,5 km/h N-NO 6,4 C 9,4 C 16,1 km/h
30.04.2009 05:00 9,5 C 81 % 1011,5 hPa 0,0 l/m 3,2 km/h NO 6,3 C 9,5 C 17,7 km/h
30.04.2009 06:00 9,7 C 80 % 1011,3 hPa 0,0 l/m 5,0 km/h NW 6,3 C 9,7 C 19,3 km/h
30.04.2009 07:00 10,2 C 79 % 1011,5 hPa 0,0 l/m 3,9 km/h S-SW 6,7 C 10,2 C 19,3 km/h
30.04.2009 08:00 11,0 C 77 % 1011,7 hPa 0,0 l/m 6,1 km/h W 7,1 C 10,9 C 22,1 km/h
30.04.2009 09:00 12,3 C 72 % 1012,0 hPa 0,0 l/m 7,2 km/h W 7,4 C 11,6 C 27,4 km/h
30.04.2009 10:00 13,2 C 70 % 1012,4 hPa 0,0 l/m 9,0 km/h N-NW 7,7 C 11,7 C 25,4 km/h
30.04.2009 11:00 14,5 C 65 % 1012,4 hPa 0,0 l/m 7,9 km/h SW 8,1 C 13,7 C 23,3 km/h
30.04.2009 12:00 15,0 C 64 % 1012,4 hPa 0,0 l/m 9,7 km/h W-NW 8,2 C 13,3 C 27,3 km/h
30.04.2009 13:00 15,9 C 61 % 1012,0 hPa 0,0 l/m 10,1 km/h W-SW 8,3 C 14,1 C 30,2 km/h
30.04.2009 14:00 16,8 C 58 % 1012,0 hPa 0,0 l/m 9,0 km/h W-NW 8,5 C 15,5 C 26,5 km/h
30.04.2009 15:00 16,9 C 57 % 1011,4 hPa 0,0 l/m 9,8 km/h W 8,2 C 15,3 C 31,4 km/h
30.04.2009 16:00 16,9 C 57 % 1011,0 hPa 0,0 l/m 8,2 km/h S 8,2 C 16,0 C 26,5 km/h
30.04.2009 17:00 15,9 C 59 % 1011,0 hPa 0,0 l/m 8,3 km/h W 7,8 C 14,9 C 27,0 km/h
30.04.2009 18:00 14,5 C 62 % 1011,7 hPa 0,0 l/m 8,9 km/h W-NW 7,3 C 13,1 C 26,5 km/h
30.04.2009 19:00 13,3 C 66 % 1012,5 hPa 0,0 l/m 7,7 km/h NW 7,1 C 12,5 C 24,9 km/h
30.04.2009 20:00 12,8 C 69 % 1012,8 hPa 0,0 l/m 8,8 km/h W-SW 7,1 C 11,3 C 28,2 km/h
30.04.2009 21:00 12,4 C 71 % 1013,6 hPa 0,0 l/m 5,9 km/h O-SO 7,2 C 12,1 C 22,1 km/h
30.04.2009 22:00 12,3 C 69 % 1013,9 hPa 0,0 l/m 6,3 km/h NW 6,8 C 12,0 C 22,5 km/h
30.04.2009 23:00 12,1 C 69 % 1014,3 hPa 0,0 l/m 5,5 km/h N-NO 6,6 C 12,1 C 22,9 km/h
01.05.2009 00:00 12,2 C 70 % 1014,5 hPa 0,0 l/m 6,0 km/h W-SW 6,9 C 12,1 C 30,6 km/h
01.05.2009 01:00 12,2 C 71 % 1014,7 hPa 0,0 l/m 5,4 km/h S-SW 7,1 C 12,2 C 23,3 km/h
01.05.2009 02:00 12,0 C 72 % 1014,5 hPa 0,0 l/m 5,7 km/h W-NW 7,2 C 12,0 C 22,1 km/h
01.05.2009 03:00 12,2 C 71 % 1014,6 hPa 0,0 l/m 4,5 km/h W-SW 7,1 C 12,2 C 21,3 km/h
01.05.2009 04:00 12,2 C 72 % 1014,7 hPa 0,0 l/m 5,0 km/h SW 7,2 C 12,2 C 19,7 km/h
01.05.2009 05:00 12,2 C 71 % 1014,9 hPa 0,0 l/m 4,7 km/h W-NW 7,2 C 12,2 C 19,3 km/h
01.05.2009 06:00 12,0 C 74 % 1015,7 hPa 0,3 l/m 4,4 km/h W-SW 7,6 C 12,0 C 16,5 km/h
01.05.2009 07:00 12,6 C 73 % 1015,7 hPa 0,0 l/m 4,5 km/h W 7,9 C 12,6 C 16,5 km/h
01.05.2009 08:00 13,5 C 70 % 1015,9 hPa 0,0 l/m 6,0 km/h NW 8,0 C 13,2 C 20,1 km/h
01.05.2009 09:00 14,6 C 67 % 1016,1 hPa 0,0 l/m 7,4 km/h W-NW 8,5 C 14,0 C 22,1 km/h
01.05.2009 10:00 16,2 C 63 % 1015,8 hPa 0,0 l/m 7,1 km/h W-SW 9,0 C 15,8 C 24,5 km/h
01.05.2009 11:00 17,9 C 57 % 1015,6 hPa 0,0 l/m 8,4 km/h W-NW 9,2 C 17,0 C 24,9 km/h
01.05.2009 12:00 18,6 C 55 % 1015,3 hPa 0,0 l/m 9,2 km/h W-SW 9,4 C 17,4 C 24,9 km/h
01.05.2009 13:00 19,3 C 54 % 1014,9 hPa 0,0 l/m 9,6 km/h N-NO 9,8 C 18,1 C 26,5 km/h
01.05.2009 14:00 20,0 C 54 % 1014,5 hPa 0,0 l/m 10,1 km/h NW 10,5 C 18,7 C 26,6 km/h
01.05.2009 15:00 19,6 C 55 % 1014,2 hPa 0,0 l/m 8,6 km/h N-NO 10,2 C 18,7 C 24,1 km/h
01.05.2009 16:00 17,3 C 65 % 1014,2 hPa 0,0 l/m 6,3 km/h W-NW 10,6 C 16,9 C 21,7 km/h
01.05.2009 17:00 18,3 C 60 % 1013,3 hPa 0,0 l/m 8,3 km/h W-SW 10,4 C 17,5 C 28,6 km/h
01.05.2009 18:00 18,0 C 58 % 1013,4 hPa 0,0 l/m 7,6 km/h SW 9,5 C 17,4 C 24,5 km/h
01.05.2009 19:00 16,5 C 65 % 1013,9 hPa 0,0 l/m 6,4 km/h W-NW 9,9 C 16,3 C 21,7 km/h
01.05.2009 20:00 15,4 C 66 % 1014,8 hPa 0,0 l/m 3,8 km/h W-NW 9,1 C 15,4 C 11,7 km/h
01.05.2009 21:00 14,8 C 66 % 1016,1 hPa 0,0 l/m 3,5 km/h NW 8,6 C 14,8 C 10,5 km/h
01.05.2009 22:00 14,0 C 66 % 1017,0 hPa 0,0 l/m 2,5 km/h N-NW 7,8 C 14,0 C 7,6 km/h
01.05.2009 23:00 13,4 C 64 % 1017,7 hPa 0,0 l/m 0,9 km/h N 6,6 C 13,4 C 4,8 km/h
02.05.2009 00:00 12,6 C 65 % 1018,1 hPa 0,0 l/m 1,0 km/h N-NW 6,2 C 12,6 C 4,4 km/h
02.05.2009 01:00 12,3 C 66 % 1018,6 hPa 0,0 l/m 3,0 km/h N-NW 6,2 C 12,3 C 8,1 km/h
02.05.2009 02:00 11,7 C 61 % 1018,9 hPa 0,0 l/m 2,7 km/h NW 4,3 C 11,7 C 7,2 km/h
02.05.2009 03:00 10,9 C 62 % 1019,3 hPa 0,0 l/m 1,6 km/h N-NW 3,9 C 10,9 C 5,6 km/h
02.05.2009 04:00 10,0 C 64 % 1019,7 hPa 0,0 l/m 1,0 km/h N 3,4 C 10,0 C 4,4 km/h
02.05.2009 05:00 9,1 C 64 % 1020,1 hPa 0,0 l/m 1,8 km/h N-NW 2,6 C 9,1 C 5,6 km/h
02.05.2009 06:00 9,4 C 60 % 1020,5 hPa 0,0 l/m 2,2 km/h NW 2,0 C 9,4 C 6,0 km/h
02.05.2009 07:00 10,4 C 58 % 1021,1 hPa 0,0 l/m 3,4 km/h NW 2,4 C 10,4 C 8,9 km/h
02.05.2009 08:00 11,8 C 53 % 1021,4 hPa 0,0 l/m 5,6 km/h NW 2,4 C 11,8 C 13,3 km/h
02.05.2009 09:00 12,9 C 46 % 1021,6 hPa 0,0 l/m 7,6 km/h N 1,5 C 12,2 C 18,9 km/h
02.05.2009 10:00 13,6 C 44 % 1021,8 hPa 0,0 l/m 7,5 km/h N-NW 1,7 C 13,0 C 18,9 km/h
02.05.2009 11:00 14,7 C 41 % 1021,9 hPa 0,0 l/m 7,6 km/h N 1,5 C 14,0 C 20,5 km/h
02.05.2009 12:00 14,9 C 39 % 1022,0 hPa 0,0 l/m 8,7 km/h N-NO 1,0 C 13,7 C 21,3 km/h
02.05.2009 13:00 15,4 C 40 % 1021,9 hPa 0,0 l/m 7,3 km/h N-NO 1,8 C 14,7 C 19,7 km/h
02.05.2009 14:00 16,3 C 39 % 1021,8 hPa 0,0 l/m 5,1 km/h NO 2,4 C 16,3 C 16,9 km/h
02.05.2009 15:00 17,4 C 39 % 1021,6 hPa 0,0 l/m 6,1 km/h NO 3,1 C 17,3 C 14,5 km/h
02.05.2009 16:00 17,5 C 41 % 1021,7 hPa 0,0 l/m 6,2 km/h NO 4,0 C 17,5 C 16,1 km/h
02.05.2009 17:00 17,6 C 41 % 1021,8 hPa 0,0 l/m 7,3 km/h N-NO 4,3 C 17,2 C 17,7 km/h
02.05.2009 18:00 17,6 C 42 % 1021,8 hPa 0,0 l/m 4,8 km/h N-NO 4,5 C 17,6 C 12,1 km/h
02.05.2009 19:00 17,3 C 44 % 1022,0 hPa 0,0 l/m 2,2 km/h N-NW 4,9 C 17,3 C 7,6 km/h
02.05.2009 20:00 15,3 C 50 % 1022,6 hPa 0,0 l/m 0,8 km/h N 4,8 C 15,3 C 4,0 km/h
02.05.2009 21:00 13,8 C 55 % 1023,2 hPa 0,0 l/m 0,4 km/h N 4,8 C 13,8 C 2,4 km/h
02.05.2009 22:00 13,4 C 56 % 1023,3 hPa 0,0 l/m 0,8 km/h N-NW 4,7 C 13,4 C 3,2 km/h
02.05.2009 23:00 13,4 C 55 % 1023,5 hPa 0,0 l/m 1,9 km/h N-NW 4,5 C 13,4 C 4,0 km/h
03.05.2009 00:00 13,2 C 55 % 1023,7 hPa 0,0 l/m 1,1 km/h N-NW 4,4 C 13,2 C 3,2 km/h
03.05.2009 01:00 12,3 C 59 % 1024,0 hPa 0,0 l/m 0,4 km/h N 4,4 C 12,3 C 3,2 km/h
03.05.2009 02:00 9,5 C 71 % 1024,2 hPa 0,0 l/m 0,0 km/h N 4,5 C 9,5 C 0,0 km/h
03.05.2009 03:00 8,4 C 76 % 1024,1 hPa 0,0 l/m 0,0 km/h N 4,4 C 8,4 C 0,0 km/h
03.05.2009 04:00 8,5 C 76 % 1023,9 hPa 0,0 l/m 0,0 km/h N 4,4 C 8,5 C 1,2 km/h
03.05.2009 05:00 9,1 C 73 % 1023,7 hPa 0,0 l/m 0,4 km/h N 4,6 C 9,1 C 4,4 km/h
03.05.2009 06:00 9,3 C 72 % 1023,8 hPa 0,0 l/m 0,5 km/h S 4,6 C 9,3 C 5,6 km/h
03.05.2009 07:00 11,1 C 68 % 1023,9 hPa 0,0 l/m 0,5 km/h N 5,3 C 11,1 C 4,0 km/h
03.05.2009 08:00 13,5 C 61 % 1024,0 hPa 0,0 l/m 1,1 km/h NW 6,2 C 13,5 C 4,4 km/h
03.05.2009 09:00 15,2 C 57 % 1023,9 hPa 0,0 l/m 2,8 km/h N-NW 6,7 C 15,2 C 7,2 km/h
03.05.2009 10:00 16,9 C 52 % 1023,6 hPa 0,0 l/m 3,3 km/h SW 7,0 C 16,9 C 10,0 km/h
03.05.2009 11:00 18,7 C 46 % 1023,0 hPa 0,0 l/m 2,5 km/h NW 6,9 C 18,7 C 8,9 km/h
03.05.2009 12:00 19,7 C 43 % 1022,2 hPa 0,0 l/m 2,8 km/h N-NO 6,9 C 19,7 C 8,4 km/h
03.05.2009 13:00 20,4 C 41 % 1021,5 hPa 0,0 l/m 2,4 km/h NO 6,5 C 20,4 C 8,4 km/h
03.05.2009 14:00 20,4 C 38 % 1020,9 hPa 0,0 l/m 2,6 km/h N-NO 5,7 C 20,4 C 7,2 km/h
03.05.2009 15:00 21,2 C 35 % 1020,2 hPa 0,0 l/m 2,6 km/h NO 5,2 C 21,2 C 7,2 km/h
03.05.2009 16:00 20,7 C 38 % 1019,5 hPa 0,0 l/m 2,3 km/h NO 5,8 C 20,7 C 5,6 km/h
03.05.2009 17:00 19,4 C 41 % 1019,2 hPa 0,0 l/m 0,8 km/h NO 5,6 C 19,4 C 3,2 km/h
03.05.2009 18:00 19,0 C 46 % 1018,6 hPa 0,0 l/m 0,0 km/h N 7,0 C 19,0 C 0,4 km/h
03.05.2009 19:00 18,0 C 50 % 1018,3 hPa 0,0 l/m 0,0 km/h N 7,3 C 18,0 C 0,4 km/h
03.05.2009 20:00 15,9 C 55 % 1018,5 hPa 0,0 l/m 0,1 km/h N 6,8 C 15,9 C 1,2 km/h
03.05.2009 21:00 14,6 C 57 % 1018,6 hPa 0,0 l/m 0,2 km/h N 6,2 C 14,6 C 4,4 km/h
03.05.2009 22:00 14,0 C 58 % 1018,5 hPa 0,0 l/m 1,1 km/h SW 6,0 C 14,0 C 6,4 km/h
03.05.2009 23:00 13,3 C 60 % 1018,5 hPa 0,0 l/m 0,3 km/h N 5,6 C 13,3 C 3,6 km/h
Min-Datum _ 03.05.09 03.05.09 28.04.09 - 27.04.09 - 02.05.09 03.05.09 27.04.09
_ Min-Zeit 03:30 15:15 18:15 - 21:15 - 12:00 03:45 21:30
Minimum _ 8,3 C 33 % 1005,6 hPa - 0,0 km/h - 0,7 C 8,3 C 0,0 km/h
Max-Datum _ 03.05.09 29.04.09 03.05.09 29.04.09 30.04.09 - 01.05.09 03.05.09 30.04.09
_ Max-Zeit 16:15 04:30 02:30 04:00 13:00 - 16:15 16:15 15:30
Maximum _ 22,1 C 87 % 1024,3 hPa 0,9 l/m 11,7 km/h
W-SW
- 10,9 C 22,0 C 38,6 km/h
SW
Durchschnitt _ 14,4 C 60 % 1013,8 hPa #2,1 l/m 3,5 km/h NW 6,4 C 14,2 C 12,5 km/h